createdAt,value
2018-10-02T00:06:49.000Z,61.61
2018-10-02T00:16:49.000Z,61.595
2018-10-02T00:26:49.000Z,61.625
2018-10-02T00:36:53.000Z,61.598
2018-10-02T00:46:49.000Z,61.477
2018-10-02T00:56:49.000Z,61.407
2018-10-02T01:06:49.000Z,61.32
2018-10-02T01:16:49.000Z,61.273
2018-10-02T01:26:49.000Z,61.258
2018-10-02T01:36:49.000Z,61.245
2018-10-02T01:46:49.000Z,61.058
2018-10-02T01:56:49.000Z,61.089
2018-10-02T02:06:49.000Z,60.979
2018-10-02T02:16:50.000Z,60.965
2018-10-02T02:26:49.000Z,60.833
2018-10-02T02:36:49.000Z,60.831
2018-10-02T02:46:49.000Z,60.688
2018-10-02T02:56:49.000Z,60.761
2018-10-02T03:06:50.000Z,60.609
2018-10-02T03:16:50.000Z,60.669
2018-10-02T03:26:50.000Z,60.517
2018-10-02T03:36:50.000Z,60.406
2018-10-02T03:46:50.000Z,60.374
2018-10-02T03:56:50.000Z,60.315
2018-10-02T04:06:50.000Z,60.348
2018-10-02T04:16:50.000Z,60.292
2018-10-02T04:26:50.000Z,60.15
2018-10-02T04:36:50.000Z,60.019
2018-10-02T04:46:50.000Z,59.988
2018-10-02T04:56:50.000Z,60.029
2018-10-02T05:06:50.000Z,59.898
2018-10-02T05:16:50.000Z,59.833
2018-10-02T05:26:50.000Z,59.736
2018-10-02T05:36:50.000Z,59.681
2018-10-02T05:46:50.000Z,59.575
2018-10-02T05:56:50.000Z,59.569
2018-10-02T06:06:50.000Z,59.289
2018-10-02T06:16:50.000Z,59.245
2018-10-02T06:26:50.000Z,59.145
2018-10-02T06:36:50.000Z,59.145
2018-10-02T06:46:50.000Z,59.166
2018-10-02T06:56:50.000Z,59.184
2018-10-02T07:06:50.000Z,59.166
2018-10-02T07:16:50.000Z,59.253
2018-10-02T07:26:50.000Z,59.252
2018-10-02T07:36:50.000Z,59.182
2018-10-02T07:46:50.000Z,59.179
2018-10-02T07:56:50.000Z,59.158
2018-10-02T08:06:50.000Z,58.957
2018-10-02T08:16:50.000Z,59.02
2018-10-02T08:26:50.000Z,58.979
2018-10-02T08:36:50.000Z,58.954
2018-10-02T08:46:50.000Z,58.899
2018-10-02T08:56:50.000Z,58.759
2018-10-02T09:06:50.000Z,58.708
2018-10-02T09:16:50.000Z,58.698
2018-10-02T09:26:50.000Z,58.768
2018-10-02T09:36:50.000Z,58.816
2018-10-02T09:46:50.000Z,58.743
2018-10-02T09:56:50.000Z,58.753
2018-10-02T10:06:50.000Z,58.806
2018-10-02T10:16:50.000Z,58.647
2018-10-02T10:26:50.000Z,58.667
2018-10-02T10:36:50.000Z,58.635
2018-10-02T10:46:50.000Z,58.551
2018-10-02T10:56:50.000Z,58.456
2018-10-02T11:06:50.000Z,58.317
2018-10-02T11:16:51.000Z,58.416
2018-10-02T11:26:50.000Z,58.349
2018-10-02T11:36:50.000Z,58.569
2018-10-02T11:46:51.000Z,58.653
2018-10-02T11:56:51.000Z,58.538
2018-10-02T12:06:51.000Z,58.4
2018-10-02T12:16:51.000Z,58.404
2018-10-02T12:26:51.000Z,58.351
2018-10-02T12:36:51.000Z,58.286
2018-10-02T12:46:52.000Z,57.999
2018-10-02T12:56:51.000Z,58.058
2018-10-02T13:06:51.000Z,57.903
2018-10-02T13:16:51.000Z,58.032
2018-10-02T13:26:53.000Z,57.928
2018-10-02T13:36:51.000Z,57.939
2018-10-02T13:46:51.000Z,57.932
2018-10-02T13:56:51.000Z,57.934
2018-10-02T14:06:51.000Z,58.051
2018-10-02T14:16:51.000Z,58.145
2018-10-02T14:26:51.000Z,58.367
2018-10-02T14:36:51.000Z,58.384
2018-10-02T14:46:51.000Z,58.265
2018-10-02T14:56:51.000Z,58.388
2018-10-02T15:06:52.000Z,58.461
2018-10-02T15:16:51.000Z,58.539
2018-10-02T15:26:51.000Z,58.725
2018-10-02T15:36:51.000Z,58.579
2018-10-02T15:46:52.000Z,58.769
2018-10-02T15:56:52.000Z,60.612
2018-10-02T16:06:51.000Z,61.693
2018-10-02T16:16:51.000Z,61.814
2018-10-02T16:26:51.000Z,61.8
2018-10-02T16:36:51.000Z,61.502
2018-10-02T16:46:51.000Z,61.37
2018-10-02T16:56:51.000Z,61.261
2018-10-02T17:06:51.000Z,61.153
2018-10-02T17:16:51.000Z,60.984
2018-10-02T17:26:51.000Z,60.992
2018-10-02T17:36:51.000Z,61.547
2018-10-02T17:46:51.000Z,61.397
2018-10-02T17:56:51.000Z,61.289
2018-10-02T18:06:51.000Z,61.313
2018-10-02T18:16:51.000Z,61.117
2018-10-02T18:26:51.000Z,60.92
2018-10-02T18:36:51.000Z,60.874
2018-10-02T18:46:51.000Z,60.828
2018-10-02T18:56:51.000Z,60.728
2018-10-02T19:06:51.000Z,60.608
2018-10-02T19:16:51.000Z,60.456
2018-10-02T19:26:51.000Z,60.514
2018-10-02T19:36:52.000Z,60.319
2018-10-02T19:46:52.000Z,60.349
2018-10-02T19:56:51.000Z,60.239
2018-10-02T20:06:52.000Z,60.183
2018-10-02T20:16:52.000Z,60.116
2018-10-02T20:26:52.000Z,60.018
2018-10-02T20:36:52.000Z,59.909
2018-10-02T20:46:52.000Z,59.822
2018-10-02T20:56:52.000Z,59.68
2018-10-02T21:06:52.000Z,59.658
2018-10-02T21:16:52.000Z,59.752
2018-10-02T21:26:52.000Z,59.826
2018-10-02T21:36:52.000Z,59.847
2018-10-02T21:46:52.000Z,59.937
2018-10-02T21:56:52.000Z,60.077
2018-10-02T22:06:52.000Z,60.004
2018-10-02T22:16:52.000Z,59.553
2018-10-02T22:26:52.000Z,59.717
2018-10-02T22:36:52.000Z,59.587
2018-10-02T22:46:52.000Z,59.568
2018-10-02T22:56:52.000Z,59.435
2018-10-02T23:06:52.000Z,59.331
2018-10-02T23:16:52.000Z,59.261
2018-10-02T23:26:52.000Z,59.167
2018-10-02T23:36:52.000Z,59.137
2018-10-02T23:46:52.000Z,59.129
